Time;durP1;ratioP1;P1;durP2;ratioP2;P2;SDS_P1;SDS_P2;PMS_P1;PMS_P2;Temp;Humidity;BMP_temperature;BMP_pressure;BME280_temperature;BME280_humidity;BME280_pressure;Samples;Min_cycle;Max_cycle;Signal;HPM_P1;HPM_P2
2023/05/21 00:00:21;;;;;;;7.07;5.33;;;;;;;18.08;61.23;94501.38;5068902;28;20233;-45
2023/05/21 00:02:47;;;;;;;6.23;5.63;;;;;;;18.07;61.47;94515.31;5068689;28;20577;-44
2023/05/21 00:05:17;;;;;;;7.63;5.70;;;;;;;17.97;61.54;94493.16;5068749;28;20711;-46
2023/05/21 00:07:45;;;;;;;7.23;5.97;;;;;;;18.01;61.58;94506.53;5068920;28;20198;-46
2023/05/21 00:10:12;;;;;;;7.40;5.67;;;;;;;17.98;61.75;94504.31;5068685;28;20279;-44
2023/05/21 00:12:40;;;;;;;7.70;5.50;;;;;;;17.97;61.83;94500.13;5069067;28;20190;-48
2023/05/21 00:15:08;;;;;;;6.17;5.57;;;;;;;17.91;61.75;94493.88;5068804;28;20284;-46
2023/05/21 00:17:35;;;;;;;7.03;5.70;;;;;;;17.91;61.61;94498.28;5068801;28;20608;-46
2023/05/21 00:20:04;;;;;;;10.43;5.60;;;;;;;17.39;61.88;94417.44;5072323;28;20586;-46
2023/05/21 00:22:32;;;;;;;7.97;5.50;;;;;;;17.87;61.88;94500.41;5073071;28;20539;-44
2023/05/21 00:25:00;;;;;;;8.17;5.77;;;;;;;17.82;62.00;94491.63;5072392;28;20226;-47
2023/05/21 00:27:27;;;;;;;7.63;5.57;;;;;;;17.82;62.13;94489.03;5072209;28;20205;-44
2023/05/21 00:29:53;;;;;;;10.93;5.27;;;;;;;17.77;62.25;94492.19;5072901;28;20198;-46
2023/05/21 00:32:20;;;;;;;8.80;5.80;;;;;;;17.76;62.38;94490.59;5072116;28;20194;-45
2023/05/21 00:34:47;;;;;;;6.33;5.67;;;;;;;17.72;62.34;94489.34;5072680;28;20308;-47
2023/05/21 00:37:15;;;;;;;7.83;5.80;;;;;;;17.69;62.54;94490.50;5072496;28;20183;-46
2023/05/21 00:39:42;;;;;;;9.63;5.63;;;;;;;17.66;62.55;94492.66;5072216;28;20249;-45
2023/05/21 00:42:10;;;;;;;6.37;5.70;;;;;;;17.63;62.52;94486.09;5072161;28;20202;-45
2023/05/21 00:44:38;;;;;;;6.97;5.47;;;;;;;17.58;62.73;94480.69;5072323;28;20186;-46
2023/05/21 00:47:06;;;;;;;9.33;5.50;;;;;;;17.56;62.65;94477.47;5072158;28;20662;-46
2023/05/21 00:49:32;;;;;;;6.17;5.53;;;;;;;17.52;62.86;94479.59;5072391;28;20225;-45
2023/05/21 00:52:00;;;;;;;6.63;5.17;;;;;;;17.50;62.68;94476.44;5072052;28;20209;-45
2023/05/21 00:54:28;;;;;;;7.20;4.93;;;;;;;17.46;62.81;94474.41;5072214;28;20194;-45
2023/05/21 00:56:55;;;;;;;5.70;5.10;;;;;;;17.39;62.98;94469.16;5071879;28;20190;-46
2023/05/21 00:59:24;;;;;;;7.00;5.30;;;;;;;17.40;63.01;94478.53;5072366;28;20609;-44
2023/05/21 01:01:55;;;;;;;7.03;5.77;;;;;;;17.37;63.12;94476.31;5073114;28;20241;-47
2023/05/21 01:04:22;;;;;;;6.20;5.60;;;;;;;17.36;63.16;94477.31;5076313;28;20187;-45
2023/05/21 01:06:49;;;;;;;6.67;5.97;;;;;;;17.37;63.24;94470.34;5076018;28;20187;-45
2023/05/21 01:09:16;;;;;;;5.93;5.30;;;;;;;17.35;63.24;94475.69;5071650;28;20202;-47
2023/05/21 01:11:47;;;;;;;6.70;6.00;;;;;;;17.20;63.03;94449.09;5071900;28;20191;-44
2023/05/21 01:14:16;;;;;;;10.00;5.53;;;;;;;17.34;63.36;94462.94;5071733;28;20190;-44
2023/05/21 01:16:46;;;;;;;6.40;5.17;;;;;;;17.14;63.23;94434.31;5071662;28;20649;-46
2023/05/21 01:19:16;;;;;;;5.67;5.03;;;;;;;17.33;63.41;94469.09;5071195;28;20206;-42
2023/05/21 01:21:46;;;;;;;7.30;5.40;;;;;;;17.30;63.50;94455.56;5071599;28;20195;-46
2023/05/21 01:24:14;;;;;;;7.77;5.40;;;;;;;17.30;63.37;94455.56;5071109;28;20230;-44
2023/05/21 01:26:43;;;;;;;6.20;5.30;;;;;;;17.29;63.34;94464.28;5072363;28;20210;-46
2023/05/21 01:29:11;;;;;;;8.03;5.80;;;;;;;17.22;63.54;94450.50;5075310;28;20190;-46
2023/05/21 01:31:54;;;;;;;6.93;5.37;;;;;;;17.29;63.75;94459.13;5070701;28;20721;-46
2023/05/21 01:34:25;;;;;;;6.17;5.57;;;;;;;17.26;63.60;94453.53;5071249;28;20665;-47
2023/05/21 01:36:59;;;;;;;7.43;5.70;;;;;;;17.28;63.80;94454.94;5071333;28;20198;-43
2023/05/21 01:39:32;;;;;;;7.40;5.90;;;;;;;17.26;63.74;94454.31;5071014;28;20240;-45
2023/05/21 01:42:03;;;;;;;5.30;4.80;;;;;;;17.25;63.78;94454.50;5071412;28;20187;-43
2023/05/21 01:44:31;;;;;;;7.10;5.60;;;;;;;17.22;64.07;94453.09;5071067;28;20760;-44
2023/05/21 01:46:59;;;;;;;9.37;5.77;;;;;;;17.21;63.88;94448.91;5071317;28;20201;-46
2023/05/21 01:49:28;;;;;;;8.53;5.57;;;;;;;17.22;63.99;94453.09;5071032;28;20202;-46
2023/05/21 01:51:55;;;;;;;6.07;5.47;;;;;;;17.22;63.85;94453.09;5071326;28;20186;-45
2023/05/21 01:54:22;;;;;;;6.03;5.43;;;;;;;17.24;64.00;94458.88;5071040;28;20271;-45
2023/05/21 01:56:50;;;;;;;8.30;5.63;;;;;;;17.24;64.12;94458.09;5070886;28;20202;-47
2023/05/21 01:59:19;;;;;;;7.17;5.70;;;;;;;17.24;64.02;94456.31;5070556;28;20669;-44
2023/05/21 02:01:46;;;;;;;7.27;5.70;;;;;;;17.24;64.26;94453.72;5070701;28;20577;-44
2023/05/21 02:04:12;;;;;;;7.27;5.60;;;;;;;17.23;63.95;94451.31;5070827;28;20282;-45
2023/05/21 02:06:40;;;;;;;6.70;5.10;;;;;;;17.22;64.08;94445.34;5070506;28;20194;-42
2023/05/21 02:09:07;;;;;;;9.07;5.63;;;;;;;17.20;64.20;94444.72;5070509;28;20228;-46
2023/05/21 02:11:34;;;;;;;6.53;4.87;;;;;;;17.16;64.16;94440.91;5070884;28;20202;-44
2023/05/21 02:14:03;;;;;;;5.60;4.80;;;;;;;17.18;64.11;94438.94;5070479;28;20182;-46
2023/05/21 02:16:29;;;;;;;5.50;5.00;;;;;;;17.17;64.31;94437.34;5070990;28;20198;-47
2023/05/21 02:18:56;;;;;;;6.87;5.53;;;;;;;17.15;64.36;94436.75;5070843;28;20178;-46
2023/05/21 02:21:23;;;;;;;5.73;4.97;;;;;;;17.13;64.11;94430.94;5070593;28;20812;-47
2023/05/21 02:23:50;;;;;;;5.63;5.03;;;;;;;17.08;64.35;94437.66;5070367;28;20229;-46
2023/05/21 02:26:17;;;;;;;8.23;5.30;;;;;;;17.09;64.53;94431.50;5070119;28;20198;-45
2023/05/21 02:28:44;;;;;;;6.87;5.37;;;;;;;17.05;64.70;94436.22;5076520;28;20285;-46
2023/05/21 02:31:12;;;;;;;5.60;5.00;;;;;;;17.03;64.73;94430.44;5073356;28;20194;-45
2023/05/21 02:33:40;;;;;;;7.03;5.00;;;;;;;16.98;64.75;94436.16;5070533;28;20197;-46
2023/05/21 02:36:11;;;;;;;7.33;5.40;;;;;;;16.98;64.83;94437.94;5069903;28;21036;-43
2023/05/21 02:38:39;;;;;;;8.00;5.40;;;;;;;16.46;64.89;94367.44;5070122;28;20614;-46
2023/05/21 02:41:06;;;;;;;4.97;4.47;;;;;;;16.91;64.96;94437.88;5069950;28;20233;-46
2023/05/21 02:43:33;;;;;;;7.00;5.53;;;;;;;16.90;64.86;94431.13;5069368;28;20674;-46
2023/05/21 02:46:00;;;;;;;5.73;4.93;;;;;;;16.89;65.01;94423.56;5069801;28;20190;-44
2023/05/21 02:48:28;;;;;;;5.50;4.90;;;;;;;16.87;65.07;94428.09;5069903;28;20311;-45
2023/05/21 02:50:55;;;;;;;5.63;5.13;;;;;;;16.83;65.15;94426.84;5069919;28;20183;-44
2023/05/21 02:53:22;;;;;;;6.03;5.03;;;;;;;16.82;65.09;94425.25;5070097;28;20186;-44
2023/05/21 02:55:49;;;;;;;7.60;5.57;;;;;;;16.80;65.30;94422.88;5069576;28;20646;-44
2023/05/21 02:58:16;;;;;;;6.93;5.30;;;;;;;16.73;65.42;94420.19;5070399;28;20278;-45
2023/05/21 03:00:42;;;;;;;7.57;5.20;;;;;;;16.78;65.33;94422.22;5069546;28;20226;-45
2023/05/21 03:03:10;;;;;;;6.43;5.63;;;;;;;16.77;65.40;94420.63;5069782;28;20350;-46
2023/05/21 03:05:38;;;;;;;7.63;5.70;;;;;;;16.76;65.47;94421.63;5070226;28;20281;-45
2023/05/21 03:08:05;;;;;;;7.30;5.47;;;;;;;16.75;65.50;94420.84;5069817;28;20190;-47
2023/05/21 03:10:32;;;;;;;7.57;5.50;;;;;;;16.75;65.55;94430.34;5069780;28;20622;-45
2023/05/21 03:12:59;;;;;;;5.90;5.23;;;;;;;16.75;65.67;94438.09;5069647;28;20186;-45
2023/05/21 03:15:32;;;;;;;6.50;5.70;;;;;;;16.52;65.54;94396.88;5069907;28;20198;-43
2023/05/21 03:17:59;;;;;;;8.60;5.43;;;;;;;16.75;65.46;94444.06;5069230;28;20680;-44
2023/05/21 03:20:26;;;;;;;5.90;5.30;;;;;;;16.73;65.57;94430.53;5069727;28;20253;-42
2023/05/21 03:22:55;;;;;;;7.00;5.40;;;;;;;16.69;65.50;94424.09;5069793;28;20303;-45
2023/05/21 03:25:24;;;;;;;7.00;5.27;;;;;;;16.64;65.60;94415.31;5070092;28;20198;-47
2023/05/21 03:27:52;;;;;;;7.63;5.63;;;;;;;16.65;65.66;94427.22;5069364;28;20193;-46
2023/05/21 03:30:19;;;;;;;7.37;5.30;;;;;;;16.75;65.47;94444.06;5069439;28;20379;-45
2023/05/21 03:32:48;;;;;;;8.23;5.23;;;;;;;16.76;65.65;94445.66;5069302;28;20638;-44
2023/05/21 03:35:15;;;;;;;8.97;5.47;;;;;;;16.77;65.58;94447.25;5073527;28;20699;-45
2023/05/21 03:37:42;;;;;;;6.13;5.53;;;;;;;16.73;65.53;94446.03;5069066;28;20217;-45
2023/05/21 03:40:11;;;;;;;5.23;4.77;;;;;;;16.80;65.73;94443.53;5069414;28;20774;-46
2023/05/21 03:42:38;;;;;;;8.53;5.40;;;;;;;16.82;65.39;94445.91;5069335;28;20240;-45
2023/05/21 03:45:06;;;;;;;7.67;5.33;;;;;;;16.85;65.50;94435.22;5069448;28;20190;-47
2023/05/21 03:47:34;;;;;;;5.20;4.63;;;;;;;16.86;65.49;94434.25;5069295;28;20244;-44
2023/05/21 03:50:01;;;;;;;6.10;5.00;;;;;;;16.89;65.47;94436.47;5069239;28;20194;-46
2023/05/21 03:52:28;;;;;;;8.30;5.17;;;;;;;16.91;65.28;94443.03;5069282;28;20209;-43
2023/05/21 03:54:55;;;;;;;5.30;4.80;;;;;;;16.93;65.19;94443.66;5072443;28;20255;-45
2023/05/21 03:57:23;;;;;;;6.27;4.50;;;;;;;16.97;65.21;94446.69;5073359;28;20193;-45
2023/05/21 03:59:50;;;;;;;4.73;4.33;;;;;;;16.99;65.28;94442.13;5073060;28;20697;-47
2023/05/21 04:02:16;;;;;;;7.33;5.10;;;;;;;17.02;65.12;94439.19;5073624;28;20657;-44
2023/05/21 04:04:44;;;;;;;5.40;4.90;;;;;;;17.04;65.34;94440.59;5073323;28;20182;-45
2023/05/21 04:07:13;;;;;;;6.93;4.80;;;;;;;17.07;65.01;94430.88;5073326;28;20201;-44
2023/05/21 04:09:41;;;;;;;8.33;4.67;;;;;;;17.11;65.12;94437.28;5072888;28;20240;-47
2023/05/21 04:12:07;;;;;;;7.37;4.83;;;;;;;17.16;65.14;94440.13;5073186;28;20226;-46
2023/05/21 04:14:36;;;;;;;7.03;4.90;;;;;;;17.20;64.99;94436.19;5072829;28;20198;-44
2023/05/21 04:17:04;;;;;;;7.90;4.93;;;;;;;17.26;64.98;94441.41;5072721;28;20239;-46
2023/05/21 04:19:31;;;;;;;5.87;4.60;;;;;;;17.34;64.74;94434.50;5073160;28;20623;-46
2023/05/21 04:21:58;;;;;;;5.33;4.83;;;;;;;17.40;64.76;94439.75;5072924;28;20663;-44
2023/05/21 04:24:25;;;;;;;6.37;5.30;;;;;;;17.44;64.76;94440.97;5072535;28;20310;-48
2023/05/21 04:26:51;;;;;;;7.07;4.70;;;;;;;17.52;64.41;94440.03;5073009;28;20190;-47
2023/05/21 04:29:20;;;;;;;8.00;5.20;;;;;;;17.60;64.39;94439.09;5072806;28;20542;-43
2023/05/21 04:31:49;;;;;;;6.30;4.80;;;;;;;17.63;64.35;94439.53;5072453;28;20661;-45
2023/05/21 04:34:16;;;;;;;7.10;4.97;;;;;;;17.71;64.36;94441.19;5072774;28;20659;-46
2023/05/21 04:36:43;;;;;;;6.60;4.87;;;;;;;17.71;64.40;94439.41;5072522;28;20232;-46
2023/05/21 04:39:10;;;;;;;5.93;4.93;;;;;;;17.82;64.15;94435.53;5073018;28;20244;-46
2023/05/21 04:41:38;;;;;;;5.83;4.97;;;;;;;17.88;64.22;94442.53;5072396;28;20222;-46
2023/05/21 04:44:06;;;;;;;5.23;4.73;;;;;;;17.88;64.03;94432.19;5072528;28;20218;-46
2023/05/21 04:46:33;;;;;;;6.43;4.80;;;;;;;17.80;64.00;94414.22;5072870;28;20189;-45
2023/05/21 04:49:02;;;;;;;7.57;5.60;;;;;;;18.08;63.86;94444.44;5072565;28;20191;-46
2023/05/21 04:51:29;;;;;;;6.67;4.90;;;;;;;18.12;63.90;94433.53;5072779;28;20179;-45
2023/05/21 04:53:56;;;;;;;5.23;4.70;;;;;;;18.21;63.65;94442.72;5072636;28;20201;-43
2023/05/21 04:56:25;;;;;;;6.97;5.10;;;;;;;18.34;63.41;94439.41;5072083;28;20212;-45
2023/05/21 04:58:52;;;;;;;4.93;4.40;;;;;;;18.44;63.15;94432.13;5072681;28;20190;-46
2023/05/21 05:01:21;;;;;;;7.67;5.70;;;;;;;18.55;63.12;94431.53;5072972;28;20694;-44
2023/05/21 05:03:48;;;;;;;5.40;4.87;;;;;;;18.44;62.94;94397.66;5080333;28;20222;-42
2023/05/21 05:06:16;;;;;;;7.67;4.97;;;;;;;18.83;62.83;94429.91;5071285;28;20332;-46
2023/05/21 05:08:44;;;;;;;5.87;5.17;;;;;;;19.01;62.48;94430.16;5071863;28;20198;-45
2023/05/21 05:11:10;;;;;;;6.70;5.20;;;;;;;19.23;62.07;94423.81;5072182;28;20265;-44
2023/05/21 05:13:37;;;;;;;6.87;5.00;;;;;;;19.41;61.87;94433.59;5071581;28;20273;-46
2023/05/21 05:16:05;;;;;;;5.03;4.63;;;;;;;19.57;61.54;94437.59;5071827;28;20650;-47
2023/05/21 05:18:32;;;;;;;7.03;5.07;;;;;;;19.74;61.37;94438.81;5071938;28;20190;-46
2023/05/21 05:20:59;;;;;;;4.23;3.87;;;;;;;19.92;60.98;94440.81;5071862;28;20395;-45
2023/05/21 05:23:27;;;;;;;6.10;5.07;;;;;;;20.12;60.66;94438.19;5071488;28;20656;-45
2023/05/21 05:25:54;;;;;;;5.67;5.07;;;;;;;20.41;60.11;94433.50;5072001;28;20201;-46
2023/05/21 05:28:21;;;;;;;5.27;4.73;;;;;;;20.66;59.74;94439.66;5071295;28;20785;-44
2023/05/21 05:30:48;;;;;;;6.90;4.72;;;;;;;20.88;59.38;94439.38;5071484;28;20182;-47
2023/05/21 05:33:15;;;;;;;5.27;4.77;;;;;;;21.06;59.15;94431.66;5071501;28;20186;-47
2023/05/21 05:35:41;;;;;;;6.25;4.13;;;;;;;21.22;58.99;94431.19;5071566;28;20186;-45
2023/05/21 05:38:08;;;;;;;6.47;4.50;;;;;;;21.47;58.68;94435.66;5071205;28;20697;-45
2023/05/21 05:40:36;;;;;;;7.65;4.80;;;;;;;21.72;58.33;94440.88;5075631;28;20259;-45
2023/05/21 05:43:03;;;;;;;7.47;5.03;;;;;;;22.02;57.98;94441.00;5073460;28;20183;-46
2023/05/21 05:45:30;;;;;;;6.45;5.00;;;;;;;22.36;57.81;94446.72;5071763;28;20201;-47
2023/05/21 05:47:57;;;;;;;7.15;5.97;;;;;;;22.73;57.61;94434.47;5071436;28;20255;-45
2023/05/21 05:50:23;;;;;;;6.10;4.93;;;;;;;23.10;57.31;94435.25;5071019;28;20696;-46
2023/05/21 05:52:51;;;;;;;7.28;5.10;;;;;;;23.47;56.93;94428.09;5071121;28;20194;-47
2023/05/21 05:55:17;;;;;;;5.15;4.53;;;;;;;23.90;56.57;94431.47;5070910;28;20281;-46
2023/05/21 05:57:46;;;;;;;7.78;5.38;;;;;;;24.28;55.70;94433.63;5071082;28;20666;-47
2023/05/21 06:00:13;;;;;;;5.07;4.35;;;;;;;24.60;55.19;94430.63;5071238;28;20186;-44
2023/05/21 06:02:40;;;;;;;7.50;5.20;;;;;;;24.94;54.54;94429.75;5071787;28;20202;-46
2023/05/21 06:05:08;;;;;;;7.97;4.28;;;;;;;25.23;54.34;94430.56;5074154;28;20237;-49
2023/05/21 06:07:38;;;;;;;5.38;4.30;;;;;;;25.57;53.75;94428.00;5072905;28;20195;-46
2023/05/21 06:10:05;;;;;;;6.18;5.18;;;;;;;26.05;53.81;94439.78;5071856;28;20249;-45
2023/05/21 06:12:32;;;;;;;6.43;4.75;;;;;;;26.69;53.51;94439.34;5070749;28;20666;-47
2023/05/21 06:15:01;;;;;;;5.20;4.55;;;;;;;27.44;52.99;94422.81;5070371;28;20264;-46
2023/05/21 06:17:27;;;;;;;5.78;4.38;;;;;;;28.24;52.96;94423.72;5070904;28;20182;-46
2023/05/21 06:19:54;;;;;;;7.80;4.00;;;;;;;29.09;51.77;94426.22;5070632;28;20182;-47
2023/05/21 06:22:21;;;;;;;8.13;4.30;;;;;;;29.98;51.10;94426.84;5070871;28;20865;-45
2023/05/21 06:24:48;;;;;;;5.07;4.35;;;;;;;30.85;49.81;94427.47;5070398;28;20233;-44
2023/05/21 06:27:15;;;;;;;9.00;3.88;;;;;;;31.71;48.84;94423.53;5070071;28;20263;-45
2023/05/21 06:29:41;;;;;;;4.63;4.18;;;;;;;32.64;47.85;94420.81;5070520;28;20178;-48
2023/05/21 06:32:10;;;;;;;4.65;4.00;;;;;;;33.59;46.97;94422.50;5070030;28;20354;-46
2023/05/21 06:34:36;;;;;;;4.25;3.65;;;;;;;34.45;45.67;94417.63;5070423;28;20213;-47
2023/05/21 06:37:03;;;;;;;4.03;3.63;;;;;;;35.05;44.33;94427.41;5069853;28;20187;-46
2023/05/21 06:39:30;;;;;;;12.43;4.22;;;;;;;35.37;43.57;94423.78;5070329;28;20268;-46
2023/05/21 06:41:57;;;;;;;4.70;4.07;;;;;;;35.55;43.22;94415.97;5069756;28;20709;-46
2023/05/21 06:44:23;;;;;;;4.78;3.30;;;;;;;35.63;42.62;94413.38;5070358;28;20178;-50
2023/05/21 06:46:53;;;;;;;5.30;3.80;;;;;;;35.62;42.36;94414.47;5070006;28;20190;-48
2023/05/21 06:49:21;;;;;;;3.78;3.47;;;;;;;35.58;42.01;94415.34;5070037;28;20233;-46
2023/05/21 06:51:47;;;;;;;4.05;3.38;;;;;;;35.47;41.75;94409.50;5069678;28;20634;-47
2023/05/21 06:54:14;;;;;;;4.25;3.40;;;;;;;35.41;41.65;94416.00;5069848;28;20201;-46
2023/05/21 06:56:41;;;;;;;5.05;3.83;;;;;;;35.38;41.41;94414.72;5069320;28;20228;-47
2023/05/21 06:59:08;;;;;;;4.30;3.78;;;;;;;35.32;41.17;94420.44;5070066;28;20318;-47
2023/05/21 07:01:35;;;;;;;7.80;3.78;;;;;;;35.28;41.00;94417.63;5069649;28;20217;-46
2023/05/21 07:04:02;;;;;;;4.72;4.20;;;;;;;35.31;40.39;94410.88;5069790;28;20213;-48
2023/05/21 07:06:30;;;;;;;5.97;4.00;;;;;;;35.38;40.57;94417.38;5070352;28;20551;-48
2023/05/21 07:08:57;;;;;;;5.50;4.20;;;;;;;35.52;40.68;94408.59;5070331;28;20253;-45
2023/05/21 07:11:27;;;;;;;3.97;3.35;;;;;;;35.76;40.23;94409.06;5072327;28;20197;-47
2023/05/21 07:13:55;;;;;;;7.18;3.85;;;;;;;36.18;40.22;94407.78;5069754;28;20191;-45
2023/05/21 07:16:22;;;;;;;5.10;3.95;;;;;;;36.65;39.74;94404.69;5069995;28;20244;-47
2023/05/21 07:18:49;;;;;;;4.20;3.80;;;;;;;37.15;39.35;94407.78;5069316;28;20639;-47
2023/05/21 07:21:16;;;;;;;5.07;3.85;;;;;;;37.67;39.36;94409.72;5068185;28;20229;-48
2023/05/21 07:27:36;;;;;;;6.68;3.88;;;;;;;38.73;37.83;94415.22;5066216;28;20232;-46
2023/05/21 07:30:03;;;;;;;3.35;3.05;;;;;;;38.91;37.64;94417.88;5069439;28;20186;-48
2023/05/21 07:32:30;;;;;;;3.92;3.60;;;;;;;39.10;37.34;94415.53;5069998;28;20649;-48
2023/05/21 07:35:01;;;;;;;3.75;3.45;;;;;;;39.38;37.49;94407.78;5069649;28;20650;-49
2023/05/21 07:37:28;;;;;;;4.53;3.63;;;;;;;39.73;36.75;94421.72;5076728;28;20226;-47
2023/05/21 07:39:55;;;;;;;5.07;3.65;;;;;;;39.91;36.70;94394.75;5069692;28;20577;-46
2023/05/21 07:42:22;;;;;;;7.47;3.72;;;;;;;40.27;35.78;94410.94;5069129;28;20222;-47
2023/05/21 07:44:51;;;;;;;6.07;3.83;;;;;;;40.51;35.52;94404.03;5070498;28;20936;-48
2023/05/21 07:47:18;;;;;;;4.22;3.70;;;;;;;40.59;35.71;94406.66;5071604;28;20194;-46
2023/05/21 07:49:46;;;;;;;5.15;3.88;;;;;;;40.85;35.36;94414.34;5069505;28;20193;-46
2023/05/21 07:52:13;;;;;;;6.00;3.92;;;;;;;40.99;34.92;94413.25;5067621;28;20195;-48
2023/05/21 07:54:40;;;;;;;3.88;3.20;;;;;;;41.09;34.77;94404.72;5067801;28;20197;-46
2023/05/21 07:57:07;;;;;;;4.10;3.65;;;;;;;41.03;34.41;94400.72;5068965;28;20194;-47
2023/05/21 07:59:34;;;;;;;6.47;3.75;;;;;;;40.91;33.88;94406.06;5069433;28;20194;-48
2023/05/21 08:02:02;;;;;;;3.85;3.17;;;;;;;40.73;34.33;94405.53;5068608;28;20222;-47
2023/05/21 08:04:30;;;;;;;3.72;3.25;;;;;;;40.56;34.20;94410.00;5069079;28;20190;-46
2023/05/21 08:06:57;;;;;;;5.03;3.95;;;;;;;40.36;34.70;94413.50;5068571;28;20259;-48
2023/05/21 08:09:24;;;;;;;4.35;3.60;;;;;;;40.18;34.45;94407.56;5069442;28;20198;-47
2023/05/21 08:11:51;;;;;;;3.83;3.30;;;;;;;40.09;33.72;94409.53;5069253;28;20183;-46
2023/05/21 08:14:18;;;;;;;3.20;2.90;;;;;;;40.06;33.49;94415.56;5068786;28;20239;-47
2023/05/21 08:16:48;;;;;;;3.65;3.33;;;;;;;39.87;33.78;94405.34;5051197;28;20197;-47
2023/05/21 08:19:16;;;;;;;5.60;3.83;;;;;;;39.60;33.93;94404.78;5067315;28;20190;-47
2023/05/21 08:21:43;;;;;;;3.80;3.40;;;;;;;39.35;33.75;94416.50;5068864;28;20222;-46
2023/05/21 08:24:10;;;;;;;5.55;3.50;;;;;;;39.04;34.19;94406.91;5067381;28;20195;-46
2023/05/21 08:26:37;;;;;;;7.68;3.63;;;;;;;38.76;34.15;94419.16;5067428;28;20240;-46
2023/05/21 08:29:04;;;;;;;4.15;3.75;;;;;;;38.43;34.17;94406.44;5067352;28;20194;-45
2023/05/21 08:31:31;;;;;;;7.72;3.92;;;;;;;38.14;33.85;94409.81;5068660;28;20672;-47
2023/05/21 08:33:57;;;;;;;4.40;3.50;;;;;;;37.82;34.08;94411.09;5068759;28;20209;-47
2023/05/21 08:36:26;;;;;;;5.03;3.42;;;;;;;37.48;34.36;94418.06;5068808;28;20681;-46
2023/05/21 08:38:52;;;;;;;6.20;3.60;;;;;;;37.00;34.19;94394.91;5068608;28;20205;-48
2023/05/21 08:41:22;;;;;;;6.65;3.60;;;;;;;36.62;34.17;94408.78;5072360;28;20412;-46
2023/05/21 08:43:56;;;;;;;6.95;3.78;;;;;;;36.28;34.24;94408.59;5072412;28;20209;-47
2023/05/21 08:46:24;;;;;;;4.57;3.72;;;;;;;35.89;34.61;94397.56;5072648;28;20597;-45
2023/05/21 08:48:53;;;;;;;7.18;3.47;;;;;;;35.10;34.26;94322.81;5072297;28;20182;-46
2023/05/21 08:51:21;;;;;;;4.05;3.65;;;;;;;35.40;34.14;94422.38;5072099;28;20736;-47
2023/05/21 08:53:50;;;;;;;5.80;3.67;;;;;;;35.15;34.18;94402.47;5072263;28;20186;-47
2023/05/21 08:56:18;;;;;;;3.75;3.40;;;;;;;34.96;34.11;94402.56;5072298;28;20197;-45
2023/05/21 08:58:46;;;;;;;5.20;3.85;;;;;;;34.80;34.01;94407.41;5072293;28;20650;-46
2023/05/21 09:01:13;;;;;;;4.47;3.65;;;;;;;34.72;34.26;94397.50;5072081;28;20187;-45
2023/05/21 09:03:40;;;;;;;5.80;3.90;;;;;;;34.68;33.92;94396.53;5072259;28;20186;-45
2023/05/21 09:06:12;;;;;;;6.97;3.90;;;;;;;34.58;34.04;94397.50;5072348;28;20186;-46
2023/05/21 09:08:43;;;;;;;3.83;3.45;;;;;;;34.43;34.19;94400.44;5072349;28;20285;-46
2023/05/21 09:11:12;;;;;;;3.88;3.10;;;;;;;34.28;34.26;94412.09;5072013;28;20182;-48
2023/05/21 09:13:40;;;;;;;7.97;3.53;;;;;;;34.06;34.08;94410.13;5072348;28;20186;-47
2023/05/21 09:16:09;;;;;;;5.05;3.60;;;;;;;33.76;33.93;94394.69;5072217;28;20202;-47
2023/05/21 09:18:36;;;;;;;6.25;3.55;;;;;;;33.46;34.32;94410.00;5072056;28;20281;-45
2023/05/21 09:21:24;;;;;;;6.32;3.50;;;;;;;33.23;34.18;94403.69;5071667;28;20190;-46
2023/05/21 09:23:54;;;;;;;5.68;3.72;;;;;;;32.92;34.21;94374.94;5071806;28;20197;-46
2023/05/21 09:26:23;;;;;;;5.07;3.15;;;;;;;32.83;34.43;94402.34;5071464;28;20233;-45
2023/05/21 09:28:51;;;;;;;6.38;3.90;;;;;;;32.68;34.37;94403.31;5071590;28;20198;-47
2023/05/21 09:31:17;;;;;;;4.47;3.08;;;;;;;32.63;34.34;94400.72;5071294;28;20282;-47
2023/05/21 09:33:46;;;;;;;4.38;3.47;;;;;;;32.64;34.34;94397.00;5071783;28;20248;-46
2023/05/21 09:36:13;;;;;;;4.00;3.17;;;;;;;32.64;34.46;94403.09;5071493;28;20301;-45
2023/05/21 09:38:40;;;;;;;4.63;3.10;;;;;;;32.66;34.17;94392.22;5071547;28;20205;-46
2023/05/21 09:41:07;;;;;;;5.53;3.60;;;;;;;32.64;34.11;94397.81;5071432;28;20213;-46
2023/05/21 09:43:36;;;;;;;4.97;3.45;;;;;;;32.59;34.18;94405.78;5071273;28;20210;-47
2023/05/21 09:46:03;;;;;;;4.30;3.25;;;;;;;32.49;34.13;94391.91;5071072;28;20198;-45
2023/05/21 09:48:35;;;;;;;5.28;3.55;;;;;;;32.37;34.07;94392.25;5071501;28;20186;-48
2023/05/21 09:51:13;;;;;;;4.45;3.22;;;;;;;32.30;34.08;94381.19;5073046;28;20289;-47
2023/05/21 09:53:44;;;;;;;3.83;3.45;;;;;;;32.26;34.00;94388.94;5071375;28;20217;-45
2023/05/21 09:56:11;;;;;;;5.47;3.08;;;;;;;32.19;34.08;94388.47;5071078;28;20263;-48
2023/05/21 09:58:43;;;;;;;4.30;3.90;;;;;;;32.15;33.98;94393.53;5070901;28;20186;-48
2023/05/21 10:01:11;;;;;;;4.78;3.65;;;;;;;32.14;33.67;94391.19;5071282;28;20201;-46
2023/05/21 10:03:40;;;;;;;5.97;4.22;;;;;;;32.08;33.74;94384.34;5071174;28;20233;-45
2023/05/21 10:06:08;;;;;;;4.32;3.65;;;;;;;32.00;34.18;94387.63;5070864;28;20187;-44
2023/05/21 10:08:36;;;;;;;8.77;3.15;;;;;;;31.88;33.92;94380.06;5071653;28;20725;-44
2023/05/21 10:11:05;;;;;;;4.53;3.20;;;;;;;31.80;33.75;94375.34;5073483;28;20237;-46
2023/05/21 10:13:37;;;;;;;3.85;3.28;;;;;;;31.70;34.08;94381.50;5074102;28;20183;-46
2023/05/21 10:16:06;;;;;;;4.32;3.35;;;;;;;31.65;33.92;94368.31;5070403;28;20193;-46
2023/05/21 10:18:36;;;;;;;3.70;3.33;;;;;;;31.63;33.68;94381.03;5070824;28;20198;-47
2023/05/21 10:21:05;;;;;;;4.25;3.20;;;;;;;30.51;33.64;94195.03;5069308;28;20614;-47
2023/05/21 10:23:36;;;;;;;5.75;3.42;;;;;;;31.66;33.49;94367.25;5069173;28;20308;-46
2023/05/21 10:26:05;;;;;;;4.00;3.42;;;;;;;31.73;33.52;94370.34;5070791;28;20229;-45
2023/05/21 10:28:34;;;;;;;4.60;3.22;;;;;;;31.69;33.36;94371.97;5070521;28;20186;-46
2023/05/21 10:31:01;;;;;;;3.50;3.13;;;;;;;31.27;33.32;94307.28;5070120;28;20226;-47
2023/05/21 10:33:31;;;;;;;5.60;3.15;;;;;;;31.55;33.47;94360.47;5070296;28;20205;-45
2023/05/21 10:35:58;;;;;;;4.13;3.38;;;;;;;31.66;33.87;94361.97;5070402;28;20410;-47
2023/05/21 10:38:25;;;;;;;5.80;3.83;;;;;;;31.71;33.35;94354.00;5070046;28;21040;-46
2023/05/21 10:40:54;;;;;;;6.82;3.58;;;;;;;31.85;33.44;94365.53;5069931;28;20252;-46
2023/05/21 10:43:48;;;;;;;3.97;3.50;;;;;;;31.84;33.40;94368.44;5069966;28;20225;-46
2023/05/21 10:47:00;;;;;;;4.75;3.30;;;;;;;31.73;33.46;94373.78;5070051;28;20282;-46
2023/05/21 10:49:41;;;;;;;4.40;3.20;;;;;;;31.49;33.90;94367.66;5069594;28;20194;-46
2023/05/21 10:52:22;;;;;;;4.22;3.00;;;;;;;31.28;34.05;94363.56;5070422;28;20288;-47
2023/05/21 10:55:08;;;;;;;6.05;3.03;;;;;;;31.04;33.98;94368.72;5070032;28;20194;-47
2023/05/21 10:57:59;;;;;;;3.92;3.22;;;;;;;30.85;34.09;94361.44;5070157;28;20627;-45
2023/05/21 11:00:27;;;;;;;4.88;3.17;;;;;;;30.74;33.99;94362.53;5070113;28;20277;-46
2023/05/21 11:02:54;;;;;;;6.05;3.72;;;;;;;30.64;34.44;94371.28;5069283;28;20214;-44
2023/05/21 11:05:38;;;;;;;5.90;3.78;;;;;;;30.46;33.97;94374.53;5073522;28;20186;-46
2023/05/21 11:08:06;;;;;;;3.38;2.85;;;;;;;30.22;34.84;94364.59;5073987;28;20265;-45
2023/05/21 11:10:39;;;;;;;6.88;3.50;;;;;;;29.98;34.58;94366.19;5070509;28;20221;-45
2023/05/21 11:13:08;;;;;;;3.47;3.17;;;;;;;29.71;35.06;94362.03;5069558;28;20198;-46
2023/05/21 11:16:06;;;;;;;8.73;3.45;;;;;;;29.45;35.16;94361.22;5070113;28;20185;-45
2023/05/21 11:18:59;;;;;;;5.35;3.28;;;;;;;29.15;35.41;94359.34;5069584;28;20278;-45
2023/05/21 11:21:30;;;;;;;5.20;4.38;;;;;;;28.97;35.71;94359.81;5027234;28;20350;-43
2023/05/21 11:24:01;;;;;;;3.88;3.03;;;;;;;28.85;35.63;94362.69;5027716;28;20691;-44
2023/05/21 11:26:30;;;;;;;5.43;3.40;;;;;;;28.80;35.56;94352.16;5026913;28;20223;-46
2023/05/21 11:29:08;;;;;;;5.35;3.92;;;;;;;28.79;36.02;94344.50;5027301;28;20206;-47
2023/05/21 11:31:39;;;;;;;5.55;3.85;;;;;;;28.80;35.72;94343.44;5027080;28;20286;-47
2023/05/21 11:34:12;;;;;;;3.95;3.15;;;;;;;28.73;35.53;94341.84;5027239;28;20309;-46
2023/05/21 11:36:42;;;;;;;8.30;3.55;;;;;;;28.58;36.04;94347.06;5026891;28;20207;-46
2023/05/21 11:39:10;;;;;;;5.20;3.47;;;;;;;28.41;36.12;94336.78;5027258;28;20196;-45
2023/05/21 11:41:51;;;;;;;5.30;3.80;;;;;;;28.18;36.21;94334.53;5027048;28;20282;-45
2023/05/21 11:44:18;;;;;;;3.63;3.33;;;;;;;27.87;36.43;94318.59;5027010;28;20195;-45